Home   Weather   France   Aix-en-Provence   Past weeks
Flag for France

Past Weather in Aix-en-Provence, Bouches-du-Rhône, France — Yesterday and Last 2 Weeks

Currently: 39 °F. Passing clouds. (Weather station: Marseille / Marignane, France). See more current weather

Past Weather in Aix-en-Provence — Graph

°F

Aix-en-Provence Temperature Yesterday

Maximum temperature yesterday: 57 °F (at 3:00 pm)
Minimum temperature yesterday: 34 °F (at 6:00 am)
Average temperature yesterday: 43 °F

High & Low Weather Summary for the Past Weeks

 TemperatureHumidityPressure
High64 °F (Nov 16, 1:00 pm)100% (Nov 16, 5:00 am)30.33 "Hg (Nov 16, 5:00 am)
Low34 °F (Nov 30, 6:00 am)47% (Nov 20, 4:00 pm)29.50 "Hg (Nov 22, 2:00 am)
Average51 °F76%29.91 "Hg
* Reported Nov 16 4:00 am — Dec 1 4:00 am, Aix-en-Provence. Weather by CustomWeather, © 2022

Note: Actual official high and low records may vary slightly from our data, if they occured in-between our weather recording intervals... More about our weather records

Aix-en-Provence Weather History for the Previous 24 Hours

Scroll right to see more
 ConditionsComfort  
Time TempWeatherWind HumidityBarometerVisibility
4:00 am
Thu, Dec 1
39 °FClear.3 mph93%30.01 "Hg10 mi
3:30 am39 °FClear.1 mph93%30.01 "Hg10 mi
3:00 am39 °FPassing clouds.2 mph93%30.01 "HgN/A
2:30 am39 °FPassing clouds.2 mph93%30.01 "HgN/A
2:00 am39 °FPassing clouds.5 mph93%30.01 "HgN/A
12:30 am37 °FClear.1 mph93%30.01 "Hg10 mi
12:00 am39 °FClear.2 mph87%30.01 "Hg10 mi
11:30 pm
Wed, Nov 30
39 °FClear.2 mph93%30.01 "Hg10 mi
11:00 pm41 °FClear.3 mph93%30.01 "Hg10 mi
10:30 pm41 °FClear.2 mph93%30.01 "Hg10 mi
10:00 pm41 °FClear.2 mph87%30.01 "Hg10 mi
9:30 pm41 °FClear.3 mph87%30.01 "Hg10 mi
9:00 pm43 °FClear.2 mph87%29.98 "Hg10 mi
8:30 pm43 °FClear.3 mph87%29.98 "Hg10 mi
8:00 pm43 °FClear.5 mph93%29.98 "Hg10 mi
7:00 pm45 °FClear.5 mph87%29.98 "Hg10 mi
6:30 pm46 °FClear.2 mph82%29.98 "Hg10 mi
6:00 pm50 °FClear.5 mph71%29.95 "Hg10 mi
5:00 pm52 °FPassing clouds.6 mph67%29.95 "HgN/A
4:30 pm55 °FSunny.3 mph59%29.95 "Hg10 mi
4:00 pm57 °FSunny.2 mph55%29.95 "Hg10 mi
3:30 pm57 °FSunny.No wind55%29.95 "Hg10 mi
3:00 pm57 °FSunny.2 mph59%29.95 "Hg10 mi
2:00 pm55 °FSunny.5 mph59%29.95 "Hg10 mi
1:00 pm52 °FSunny.5 mph67%29.98 "Hg10 mi
12:30 pm52 °FPassing clouds.3 mph67%29.98 "HgN/A
12:00 pm50 °FPassing clouds.6 mph71%29.98 "HgN/A
11:30 am48 °FSunny.5 mph76%29.98 "Hg10 mi
11:00 am46 °FPassing clouds.5 mph76%30.01 "HgN/A
10:30 am46 °FSunny.3 mph76%30.01 "Hg10 mi
10:00 am45 °FPassing clouds.5 mph81%30.01 "HgN/A
9:30 am43 °FPassing clouds.3 mph87%30.01 "HgN/A
9:00 am37 °FSunny.5 mph93%30.01 "Hg10 mi
8:30 am36 °FClear.5 mph93%30.01 "HgN/A
8:00 am36 °FClear.2 mph87%29.98 "HgN/A
7:00 am36 °FClear.5 mph93%29.98 "HgN/A
6:30 am36 °FClear.6 mph93%30.01 "HgN/A
6:00 am34 °FClear.5 mph100%30.01 "HgN/A
5:30 am36 °FClear.3 mph93%30.01 "HgN/A
5:00 am36 °FClear.3 mph93%30.01 "HgN/A
Weather by CustomWeather, © 2022

See weather overview